Terminal Aerodrome Forecast
Issued by NWS

Home | Current Version | Previous Version | Text Only | Print | Product List | Glossary On
Versions: 1 2 3 4 5 6 7 8 9 10 11 12 13 14 15 16 17
000
FTUS44 KTSA 241100 AAA
TAFXNA
TAF AMD
KXNA 241139Z 2412/2512 16014G25KT P6SM VCTS BKN070CB
     FM241800 20014G25KT P6SM VCTS BKN050CB
      TEMPO 2418/2421 4SM -TSRA BR BKN025CB
     FM242200 27013G25KT P6SM BKN050
     FM250200 30009KT P6SM SCT250
     FM250900 32003KT P6SM SKC=

USA.gov is the U.S. government's official web portal to all federal, state and local government web resources and services.